Time;durP1;ratioP1;P1;durP2;ratioP2;P2;SDS_P1;SDS_P2;PMS_P1;PMS_P2;Temp;Humidity;BMP_temperature;BMP_pressure;BME280_temperature;BME280_humidity;BME280_pressure;Samples;Min_cycle;Max_cycle;Signal;HPM_P1;HPM_P2
2022/02/14 00:01:29;;;;;;;29.52;3.58;;;;;;;;;;4896837;29;20300;-83
2022/02/14 00:03:56;;;;;;;31.02;3.28;;;;;;;;;;4892973;29;20068;-82
2022/02/14 00:06:23;;;;;;;30.33;3.17;;;;;;;;;;4893570;29;20045;-82
2022/02/14 00:08:50;;;;;;;33.53;3.88;;;;;;;;;;4893430;29;20060;-83
2022/02/14 00:11:17;;;;;;;23.48;2.72;;;;;;;;;;4892050;29;20045;-82
2022/02/14 00:13:43;;;;;;;22.90;2.53;;;;;;;;;;4894105;29;20057;-82
2022/02/14 00:16:10;;;;;;;23.73;2.72;;;;;;;;;;4894250;29;20053;-81
2022/02/14 00:18:37;;;;;;;19.90;3.47;;;;;;;;;;4892583;29;20100;-82
2022/02/14 00:21:03;;;;;;;21.08;2.50;;;;;;;;;;4894286;29;20073;-82
2022/02/14 00:23:30;;;;;;;27.00;2.85;;;;;;;;;;4893766;29;20087;-81
2022/02/14 00:25:56;;;;;;;19.00;2.53;;;;;;;;;;4895521;29;20061;-81
2022/02/14 00:28:23;;;;;;;23.88;2.45;;;;;;;;;;4895006;29;20153;-81
2022/02/14 00:30:50;;;;;;;16.45;2.20;;;;;;;;;;4893486;29;20060;-81
2022/02/14 00:33:16;;;;;;;22.27;3.50;;;;;;;;;;4893896;29;20140;-82
2022/02/14 00:35:43;;;;;;;23.48;2.95;;;;;;;;;;4894083;29;20135;-82
2022/02/14 00:38:12;;;;;;;26.65;2.97;;;;;;;;;;4895701;29;20049;-82
2022/02/14 00:40:39;;;;;;;21.02;3.30;;;;;;;;;;4897092;29;20466;-82
2022/02/14 00:43:05;;;;;;;22.80;2.83;;;;;;;;;;4892343;29;20041;-82
2022/02/14 00:45:32;;;;;;;29.08;3.15;;;;;;;;;;4895046;29;20100;-82
2022/02/14 00:47:59;;;;;;;21.10;2.60;;;;;;;;;;4893204;29;20112;-82
2022/02/14 00:50:26;;;;;;;21.98;3.28;;;;;;;;;;4881525;29;20105;-82
2022/02/14 00:52:53;;;;;;;21.17;2.47;;;;;;;;;;4896087;29;20084;-79
2022/02/14 00:55:19;;;;;;;22.95;3.00;;;;;;;;;;4896448;29;20716;-80
2022/02/14 00:57:47;;;;;;;24.85;2.60;;;;;;;;;;4893379;29;20045;-80
2022/02/14 01:00:14;;;;;;;27.38;2.67;;;;;;;;;;4893835;29;20104;-81
2022/02/14 01:02:41;;;;;;;16.15;2.65;;;;;;;;;;4894223;29;20048;-80
2022/02/14 01:05:09;;;;;;;23.15;2.83;;;;;;;;;;4892886;29;20048;-80
2022/02/14 01:07:37;;;;;;;27.40;3.47;;;;;;;;;;4896458;29;20100;-80
2022/02/14 01:10:06;;;;;;;26.42;3.00;;;;;;;;;;4894491;29;20045;-80
2022/02/14 01:12:33;;;;;;;20.90;2.65;;;;;;;;;;4893311;29;20040;-81
2022/02/14 01:15:04;;;;;;;15.13;2.33;;;;;;;;;;4893431;29;20112;-81
2022/02/14 01:17:30;;;;;;;24.25;2.67;;;;;;;;;;4893280;29;20040;-81
2022/02/14 01:19:57;;;;;;;22.38;2.53;;;;;;;;;;4894520;29;20601;-81
2022/02/14 01:22:23;;;;;;;25.77;2.70;;;;;;;;;;4894760;29;20437;-80
2022/02/14 01:24:50;;;;;;;28.10;2.83;;;;;;;;;;4893821;29;20127;-80
2022/02/14 01:27:17;;;;;;;18.58;3.03;;;;;;;;;;4892801;29;20096;-80
2022/02/14 01:29:43;;;;;;;30.27;3.45;;;;;;;;;;4892565;29;20466;-82
2022/02/14 01:32:10;;;;;;;32.20;3.10;;;;;;;;;;4892704;29;20105;-81
2022/02/14 01:34:37;;;;;;;30.50;3.38;;;;;;;;;;4895932;29;20066;-81
2022/02/14 01:37:03;;;;;;;24.35;3.75;;;;;;;;;;4893238;29;20041;-81
2022/02/14 01:39:30;;;;;;;39.67;3.80;;;;;;;;;;4892540;29;20064;-81
2022/02/14 01:41:58;;;;;;;27.48;4.13;;;;;;;;;;4892014;29;20089;-81
2022/02/14 01:44:44;;;;;;;30.77;4.05;;;;;;;;;;4892144;29;20129;-80
2022/02/14 01:47:17;;;;;;;40.42;3.80;;;;;;;;;;4878513;29;20053;-79
2022/02/14 01:49:44;;;;;;;39.92;5.18;;;;;;;;;;4894369;29;20049;-80
2022/02/14 01:52:12;;;;;;;38.13;3.70;;;;;;;;;;4893450;29;20123;-79
2022/02/14 01:54:42;;;;;;;23.05;4.20;;;;;;;;;;4893084;29;20801;-79
2022/02/14 01:57:11;;;;;;;33.38;4.05;;;;;;;;;;4892187;29;20108;-81
2022/02/14 01:59:39;;;;;;;37.17;3.72;;;;;;;;;;4894274;29;20048;-79
2022/02/14 02:02:07;;;;;;;39.35;4.70;;;;;;;;;;4877889;29;20041;-80
2022/02/14 02:04:35;;;;;;;25.17;3.60;;;;;;;;;;4891556;29;20184;-80
2022/02/14 02:07:04;;;;;;;27.90;3.42;;;;;;;;;;4891135;29;20060;-81
2022/02/14 02:09:31;;;;;;;29.73;3.25;;;;;;;;;;4893008;29;20052;-81
2022/02/14 02:14:43;;;;;;;32.90;4.15;;;;;;;;;;4891943;29;20577;-81
2022/02/14 02:17:10;;;;;;;21.65;2.85;;;;;;;;;;4891716;29;20072;-80
2022/02/14 02:19:37;;;;;;;20.75;2.22;;;;;;;;;;4895291;29;20127;-81
2022/02/14 02:22:04;;;;;;;24.05;3.55;;;;;;;;;;4893551;29;20048;-81
2022/02/14 02:24:59;;;;;;;35.38;3.67;;;;;;;;;;4891944;29;20044;-81
2022/02/14 02:27:27;;;;;;;21.98;3.17;;;;;;;;;;4887897;29;20569;-81
2022/02/14 02:30:07;;;;;;;22.88;3.38;;;;;;;;;;4890533;29;20128;-80
2022/02/14 02:32:36;;;;;;;31.63;3.63;;;;;;;;;;4891221;29;20055;-81
2022/02/14 02:35:05;;;;;;;21.63;3.17;;;;;;;;;;4891583;29;20104;-81
2022/02/14 02:37:32;;;;;;;19.27;2.63;;;;;;;;;;4894977;29;20061;-82
2022/02/14 02:39:59;;;;;;;20.73;2.72;;;;;;;;;;4891425;29;20085;-82
2022/02/14 02:42:26;;;;;;;18.98;2.80;;;;;;;;;;4890979;29;20048;-82
2022/02/14 02:44:53;;;;;;;24.27;2.83;;;;;;;;;;4891632;29;20056;-81
2022/02/14 02:47:22;;;;;;;21.70;2.38;;;;;;;;;;4890796;29;20049;-82
2022/02/14 02:49:50;;;;;;;26.88;3.00;;;;;;;;;;4892218;29;20144;-83
2022/02/14 02:52:18;;;;;;;20.52;2.10;;;;;;;;;;4893504;29;20072;-82
2022/02/14 02:54:46;;;;;;;22.27;2.80;;;;;;;;;;4890999;29;20112;-81
2022/02/14 02:57:13;;;;;;;22.23;3.75;;;;;;;;;;4892187;29;20624;-81
2022/02/14 02:59:42;;;;;;;33.63;3.83;;;;;;;;;;4891839;29;20166;-81
2022/02/14 03:02:08;;;;;;;25.95;3.20;;;;;;;;;;4891427;29;20116;-80
2022/02/14 03:04:35;;;;;;;24.13;3.33;;;;;;;;;;4895192;29;20124;-81
2022/02/14 03:07:03;;;;;;;18.00;3.35;;;;;;;;;;4891889;29;20049;-82
2022/02/14 03:09:30;;;;;;;24.60;2.22;;;;;;;;;;4892511;29;20068;-81
2022/02/14 03:11:57;;;;;;;21.08;2.45;;;;;;;;;;4891116;29;20052;-81
2022/02/14 03:14:24;;;;;;;30.33;2.50;;;;;;;;;;4893099;29;20091;-81
2022/02/14 03:16:51;;;;;;;21.58;2.83;;;;;;;;;;4893060;29;20052;-81
2022/02/14 03:19:18;;;;;;;17.42;2.47;;;;;;;;;;4892650;29;20045;-81
2022/02/14 03:21:44;;;;;;;22.13;2.75;;;;;;;;;;4893114;29;20371;-81
2022/02/14 03:24:13;;;;;;;24.05;3.13;;;;;;;;;;4890956;29;20053;-81
2022/02/14 03:26:40;;;;;;;24.70;2.88;;;;;;;;;;4891769;29;20049;-82
2022/02/14 03:29:07;;;;;;;22.10;2.55;;;;;;;;;;4891156;29;20081;-81
2022/02/14 03:31:34;;;;;;;18.52;2.67;;;;;;;;;;4890556;29;20045;-81
2022/02/14 03:34:01;;;;;;;26.40;3.95;;;;;;;;;;4891058;29;20107;-81
2022/02/14 03:36:27;;;;;;;20.52;3.25;;;;;;;;;;4889400;29;20340;-81
2022/02/14 03:38:55;;;;;;;26.25;3.15;;;;;;;;;;4891248;29;20108;-80
2022/02/14 03:41:21;;;;;;;27.95;3.38;;;;;;;;;;4891157;29;20570;-80
2022/02/14 03:43:48;;;;;;;32.78;3.80;;;;;;;;;;4893174;29;20076;-81
2022/02/14 03:46:15;;;;;;;25.63;3.15;;;;;;;;;;4892064;29;20135;-80
2022/02/14 03:48:42;;;;;;;29.70;3.53;;;;;;;;;;4892946;29;20097;-81
2022/02/14 03:51:09;;;;;;;28.55;2.90;;;;;;;;;;4890869;29;20580;-82
2022/02/14 03:53:36;;;;;;;29.38;3.25;;;;;;;;;;4892270;29;20560;-78
2022/02/14 03:56:04;;;;;;;38.25;3.80;;;;;;;;;;4891763;29;20072;-81
2022/02/14 03:58:31;;;;;;;;;;;;;;;;;;4894544;29;20204;-81
2022/02/14 04:00:59;;;;;;;18.73;2.60;;;;;;;;;;4891413;29;19979;-80
2022/02/14 04:03:27;;;;;;;37.03;3.28;;;;;;;;;;4891060;29;20047;-80
2022/02/14 04:05:53;;;;;;;34.67;3.03;;;;;;;;;;4894089;29;20128;-80
2022/02/14 04:08:23;;;;;;;28.25;3.20;;;;;;;;;;4894383;29;20525;-81
2022/02/14 04:10:51;;;;;;;31.30;3.83;;;;;;;;;;4896721;29;20093;-81
2022/02/14 04:13:17;;;;;;;22.83;4.10;;;;;;;;;;4895380;29;20037;-81
2022/02/14 04:15:44;;;;;;;32.50;3.60;;;;;;;;;;4894099;29;20049;-81
2022/02/14 04:18:11;;;;;;;28.15;3.53;;;;;;;;;;4895566;29;20105;-80
2022/02/14 04:20:37;;;;;;;32.85;3.30;;;;;;;;;;4894316;29;20577;-81
2022/02/14 04:23:04;;;;;;;31.77;3.60;;;;;;;;;;4894548;29;20053;-81
2022/02/14 04:25:31;;;;;;;35.08;3.88;;;;;;;;;;4896932;29;20062;-81
2022/02/14 04:27:58;;;;;;;28.67;3.40;;;;;;;;;;4893907;29;20569;-81
2022/02/14 04:30:29;;;;;;;28.92;3.08;;;;;;;;;;4894958;29;20044;-81
2022/02/14 04:32:59;;;;;;;19.50;3.38;;;;;;;;;;4895982;29;20049;-81
2022/02/14 04:35:31;;;;;;;35.13;3.70;;;;;;;;;;4896060;29;20056;-81
2022/02/14 04:38:01;;;;;;;39.03;3.67;;;;;;;;;;4895150;29;20525;-81
2022/02/14 04:40:30;;;;;;;23.05;2.42;;;;;;;;;;4895891;29;20073;-81
2022/02/14 04:42:57;;;;;;;;;;;;;;;;;;4894399;29;20048;-81
2022/02/14 04:45:23;;;;;;;28.30;4.00;;;;;;;;;;4892998;29;19983;-82
2022/02/14 04:47:50;;;;;;;29.90;3.30;;;;;;;;;;4895715;29;20053;-81
2022/02/14 04:50:17;;;;;;;25.30;3.00;;;;;;;;;;4893238;29;20037;-79
2022/02/14 04:52:43;;;;;;;34.40;4.28;;;;;;;;;;4895975;29;20084;-82
2022/02/14 04:55:10;;;;;;;31.92;3.55;;;;;;;;;;4894488;29;20045;-81
2022/02/14 04:57:37;;;;;;;37.38;3.60;;;;;;;;;;4893554;29;20052;-82
2022/02/14 05:00:07;;;;;;;34.75;4.97;;;;;;;;;;4893840;29;20053;-81
2022/02/14 05:02:33;;;;;;;30.35;4.32;;;;;;;;;;4892090;29;20056;-82
2022/02/14 05:05:00;;;;;;;34.83;4.38;;;;;;;;;;4892592;29;20049;-81
2022/02/14 05:07:26;;;;;;;33.00;3.75;;;;;;;;;;4895558;29;20087;-81
2022/02/14 05:09:53;;;;;;;34.28;4.57;;;;;;;;;;4894477;29;20056;-81
2022/02/14 05:12:19;;;;;;;40.13;5.40;;;;;;;;;;4893138;29;20517;-81
2022/02/14 05:14:46;;;;;;;30.10;4.70;;;;;;;;;;4892999;29;20075;-80
2022/02/14 05:17:15;;;;;;;33.33;5.32;;;;;;;;;;4892761;29;20464;-80
2022/02/14 05:19:41;;;;;;;;;;;;;;;;;;4896149;29;20460;-80
2022/02/14 05:22:08;;;;;;;29.23;5.35;;;;;;;;;;4892714;29;19924;-80
2022/02/14 05:24:34;;;;;;;24.13;3.88;;;;;;;;;;4893408;29;20053;-80
2022/02/14 05:27:01;;;;;;;22.75;2.60;;;;;;;;;;4892750;29;20072;-80
2022/02/14 05:29:28;;;;;;;9.35;1.08;;;;;;;;;;4892728;29;20079;-79
2022/02/14 05:31:56;;;;;;;8.65;1.30;;;;;;;;;;4894345;29;20079;-80
2022/02/14 05:34:23;;;;;;;13.73;1.33;;;;;;;;;;4895006;29;20502;-80
2022/02/14 05:36:49;;;;;;;9.13;1.10;;;;;;;;;;4892365;29;20076;-81
2022/02/14 05:39:16;;;;;;;15.15;2.58;;;;;;;;;;4894399;29;20466;-79
2022/02/14 05:41:42;;;;;;;13.85;1.50;;;;;;;;;;4892091;29;20505;-81
2022/02/14 05:44:09;;;;;;;14.98;1.58;;;;;;;;;;4892243;29;20047;-80
2022/02/14 05:46:36;;;;;;;16.10;2.13;;;;;;;;;;4895218;29;20053;-79
2022/02/14 05:49:02;;;;;;;11.38;1.40;;;;;;;;;;4892713;29;20088;-80
2022/02/14 05:51:29;;;;;;;17.45;1.67;;;;;;;;;;4892442;29;20104;-82
2022/02/14 05:53:55;;;;;;;14.80;1.65;;;;;;;;;;4892241;29;20056;-79
2022/02/14 05:56:22;;;;;;;17.75;1.80;;;;;;;;;;4892268;29;20562;-79
2022/02/14 05:58:48;;;;;;;17.63;1.50;;;;;;;;;;4894780;29;20072;-81
2022/02/14 06:01:17;;;;;;;19.85;1.55;;;;;;;;;;4894848;29;20072;-82
2022/02/14 06:03:43;;;;;;;28.10;2.63;;;;;;;;;;4891350;29;20135;-80
2022/02/14 06:06:10;;;;;;;25.75;2.20;;;;;;;;;;4891928;29;20131;-79
2022/02/14 06:08:36;;;;;;;16.95;1.38;;;;;;;;;;4893553;29;20104;-79
2022/02/14 06:11:03;;;;;;;27.40;2.10;;;;;;;;;;4892074;29;20104;-79
2022/02/14 06:13:30;;;;;;;19.92;1.88;;;;;;;;;;4895076;29;20538;-82
2022/02/14 06:15:57;;;;;;;14.15;1.80;;;;;;;;;;4893877;29;20049;-82
2022/02/14 06:18:23;;;;;;;17.10;1.45;;;;;;;;;;4888134;29;20159;-80
2022/02/14 06:20:51;;;;;;;19.75;2.10;;;;;;;;;;4892298;29;20044;-79
2022/02/14 06:23:18;;;;;;;15.60;1.80;;;;;;;;;;4894064;29;20048;-80
2022/02/14 06:25:45;;;;;;;15.63;1.60;;;;;;;;;;4893955;29;20125;-82
2022/02/14 06:28:11;;;;;;;14.27;1.40;;;;;;;;;;4893095;29;20072;-79
2022/02/14 06:30:38;;;;;;;15.52;1.17;;;;;;;;;;4892197;29;20073;-79
2022/02/14 06:33:05;;;;;;;20.52;1.73;;;;;;;;;;4891281;29;20100;-82
2022/02/14 06:35:31;;;;;;;20.27;1.35;;;;;;;;;;4892151;29;20048;-80
2022/02/14 06:37:58;;;;;;;16.23;1.55;;;;;;;;;;4892905;29;20513;-79
2022/02/14 06:40:24;;;;;;;14.73;1.30;;;;;;;;;;4894078;29;20056;-82
2022/02/14 06:42:51;;;;;;;26.05;2.33;;;;;;;;;;4891628;29;20119;-82
2022/02/14 06:45:18;;;;;;;15.93;1.98;;;;;;;;;;4893495;29;20148;-82
2022/02/14 06:47:51;;;;;;;19.80;1.65;;;;;;;;;;4891750;29;20395;-79
2022/02/14 06:50:18;;;;;;;17.45;1.38;;;;;;;;;;4890734;29;20598;-79
2022/02/14 06:52:44;;;;;;;16.60;1.60;;;;;;;;;;4894305;29;20040;-80
2022/02/14 06:55:12;;;;;;;12.88;1.60;;;;;;;;;;4891530;29;20128;-79
2022/02/14 06:57:39;;;;;;;20.70;1.95;;;;;;;;;;4892120;29;20873;-81
2022/02/14 07:00:10;;;;;;;19.75;1.63;;;;;;;;;;4893574;29;20097;-82
2022/02/14 07:02:37;;;;;;;17.55;1.80;;;;;;;;;;4891365;29;20573;-82
2022/02/14 07:05:05;;;;;;;18.58;1.65;;;;;;;;;;4890350;29;20108;-82
2022/02/14 07:07:32;;;;;;;29.58;2.40;;;;;;;;;;4894648;29;20048;-82
2022/02/14 07:09:58;;;;;;;19.10;2.40;;;;;;;;;;4892423;29;20052;-81
2022/02/14 07:12:25;;;;;;;24.50;2.50;;;;;;;;;;4890986;29;20048;-81
2022/02/14 07:14:52;;;;;;;30.50;3.72;;;;;;;;;;4891917;29;20053;-82
2022/02/14 07:17:19;;;;;;;17.65;2.00;;;;;;;;;;4891951;29;20109;-81
2022/02/14 07:19:46;;;;;;;30.48;2.75;;;;;;;;;;4893106;29;20441;-81
2022/02/14 07:22:12;;;;;;;39.15;3.78;;;;;;;;;;4891824;29;20561;-81
2022/02/14 07:24:39;;;;;;;29.67;3.47;;;;;;;;;;4891704;29;20048;-80
2022/02/14 07:27:06;;;;;;;27.70;3.35;;;;;;;;;;4890165;29;20159;-81
2022/02/14 07:29:32;;;;;;;40.40;4.07;;;;;;;;;;4891682;29;20108;-81
2022/02/14 07:32:00;;;;;;;40.88;3.90;;;;;;;;;;4891977;29;20096;-81
2022/02/14 07:34:27;;;;;;;30.85;3.28;;;;;;;;;;4892579;29;20409;-81
2022/02/14 07:36:53;;;;;;;43.25;3.58;;;;;;;;;;4892045;29;20057;-80
2022/02/14 07:39:20;;;;;;;38.85;4.75;;;;;;;;;;4892049;29;20044;-81
2022/02/14 07:41:48;;;;;;;30.90;3.60;;;;;;;;;;4891472;29;20070;-81
2022/02/14 07:44:15;;;;;;;35.60;4.77;;;;;;;;;;4894299;29;20045;-80
2022/02/14 07:46:42;;;;;;;48.78;5.45;;;;;;;;;;4896629;29;20132;-80
2022/02/14 07:49:08;;;;;;;34.75;3.70;;;;;;;;;;4895573;29;20111;-81
2022/02/14 07:51:35;;;;;;;39.88;4.18;;;;;;;;;;4894226;29;20059;-81
2022/02/14 07:54:01;;;;;;;41.67;4.70;;;;;;;;;;4894488;29;20053;-82
2022/02/14 07:56:28;;;;;;;41.97;4.60;;;;;;;;;;4893469;29;20075;-80
2022/02/14 07:58:58;;;;;;;39.50;4.68;;;;;;;;;;4895973;29;20529;-81
2022/02/14 08:01:25;;;;;;;52.03;4.63;;;;;;;;;;4895692;29;20052;-80
2022/02/14 08:03:51;;;;;;;43.88;4.03;;;;;;;;;;4893758;29;20053;-81
2022/02/14 08:06:29;;;;;;;45.57;3.93;;;;;;;;;;4894762;29;20044;-81
2022/02/14 08:08:56;;;;;;;42.63;4.40;;;;;;;;;;4895335;29;20582;-81
2022/02/14 08:11:23;;;;;;;39.90;4.05;;;;;;;;;;4893490;29;20533;-79
2022/02/14 08:13:49;;;;;;;32.97;3.95;;;;;;;;;;4896166;29;20584;-80
2022/02/14 08:16:16;;;;;;;28.40;4.13;;;;;;;;;;4894385;29;20072;-79
2022/02/14 08:18:43;;;;;;;38.95;4.40;;;;;;;;;;4893389;29;20044;-80
2022/02/14 08:21:10;;;;;;;39.65;3.85;;;;;;;;;;4892868;29;20064;-78
2022/02/14 08:23:36;;;;;;;31.23;3.90;;;;;;;;;;4894084;29;20053;-79
2022/02/14 08:26:03;;;;;;;34.60;3.40;;;;;;;;;;4893863;29;20053;-80
2022/02/14 08:28:29;;;;;;;31.30;3.65;;;;;;;;;;4896252;29;20076;-79
2022/02/14 08:30:56;;;;;;;28.17;3.85;;;;;;;;;;4893875;29;20040;-81
2022/02/14 08:33:23;;;;;;;26.08;3.28;;;;;;;;;;4894148;29;20381;-81
2022/02/14 08:35:49;;;;;;;25.73;2.70;;;;;;;;;;4893081;29;20048;-81
2022/02/14 08:38:16;;;;;;;20.73;2.30;;;;;;;;;;4892222;29;20049;-81
2022/02/14 08:40:43;;;;;;;16.60;2.45;;;;;;;;;;4895301;29;20072;-80
2022/02/14 08:43:09;;;;;;;26.77;2.75;;;;;;;;;;4892515;29;20088;-80
2022/02/14 08:45:57;;;;;;;25.58;3.33;;;;;;;;;;4888329;29;20573;-81
2022/02/14 08:48:23;;;;;;;17.17;2.78;;;;;;;;;;4892413;29;20053;-80
2022/02/14 08:50:50;;;;;;;23.77;3.80;;;;;;;;;;4891506;29;20056;-80
2022/02/14 08:53:18;;;;;;;14.75;2.67;;;;;;;;;;4892530;29;20132;-80
2022/02/14 08:55:44;;;;;;;21.85;3.13;;;;;;;;;;4895418;29;20053;-81
2022/02/14 08:58:11;;;;;;;21.55;2.67;;;;;;;;;;4895105;29;20108;-81
2022/02/14 09:00:38;;;;;;;33.40;7.38;;;;;;;;;;4892991;29;20053;-81
2022/02/14 09:03:05;;;;;;;23.05;2.40;;;;;;;;;;4892584;29;20075;-81
2022/02/14 09:05:32;;;;;;;21.95;2.40;;;;;;;;;;4892636;29;20053;-80
2022/02/14 09:07:59;;;;;;;19.30;2.40;;;;;;;;;;4894076;29;20045;-84
2022/02/14 09:10:26;;;;;;;19.23;2.25;;;;;;;;;;4895158;29;20056;-81
2022/02/14 09:12:52;;;;;;;12.45;1.50;;;;;;;;;;4894644;29;20124;-81
2022/02/14 09:15:19;;;;;;;10.38;1.92;;;;;;;;;;4892134;29;20700;-82
2022/02/14 09:17:46;;;;;;;19.80;2.72;;;;;;;;;;4889293;29;20072;-81
2022/02/14 09:20:12;;;;;;;15.63;2.35;;;;;;;;;;4892317;29;20111;-83
2022/02/14 09:22:39;;;;;;;19.55;2.80;;;;;;;;;;4895530;29;20069;-81
2022/02/14 09:25:08;;;;;;;30.98;4.07;;;;;;;;;;4892664;29;20417;-82
2022/02/14 09:27:35;;;;;;;16.48;1.77;;;;;;;;;;4891724;29;20048;-82
2022/02/14 09:30:02;;;;;;;15.18;2.47;;;;;;;;;;4891893;29;20352;-82
2022/02/14 09:32:29;;;;;;;16.77;2.40;;;;;;;;;;4891758;29;20427;-83
2022/02/14 09:34:56;;;;;;;16.52;1.95;;;;;;;;;;4893801;29;20413;-83
2022/02/14 09:37:22;;;;;;;14.25;2.30;;;;;;;;;;4892735;29;20079;-81
2022/02/14 09:39:49;;;;;;;11.73;1.90;;;;;;;;;;4887410;29;20518;-81
2022/02/14 09:42:16;;;;;;;7.95;1.45;;;;;;;;;;4883868;29;20097;-83
2022/02/14 09:44:44;;;;;;;12.20;1.30;;;;;;;;;;4881175;29;20056;-84
2022/02/14 09:47:10;;;;;;;6.63;1.10;;;;;;;;;;4879964;29;20068;-81
2022/02/14 09:49:41;;;;;;;11.13;1.15;;;;;;;;;;4893385;29;20932;-82
2022/02/14 09:52:08;;;;;;;7.53;0.88;;;;;;;;;;4882483;29;20125;-81
2022/02/14 09:54:35;;;;;;;9.77;1.17;;;;;;;;;;4891038;29;20081;-80
2022/02/14 09:57:03;;;;;;;12.23;1.25;;;;;;;;;;4889858;29;20116;-79
2022/02/14 09:59:29;;;;;;;10.73;1.60;;;;;;;;;;4879867;29;20117;-79
2022/02/14 10:01:56;;;;;;;13.02;1.73;;;;;;;;;;4892489;29;20057;-81
2022/02/14 10:04:23;;;;;;;12.20;1.25;;;;;;;;;;4893269;29;20064;-84
2022/02/14 10:06:50;;;;;;;10.43;1.25;;;;;;;;;;4892000;29;20533;-81
2022/02/14 10:09:23;;;;;;;5.13;0.77;;;;;;;;;;4892403;29;20041;-82
2022/02/14 10:12:08;;;;;;;5.50;1.23;;;;;;;;;;4891426;29;20486;-85
2022/02/14 10:14:35;;;;;;;3.38;0.50;;;;;;;;;;4891210;29;20510;-82
2022/02/14 10:17:08;;;;;;;7.38;0.93;;;;;;;;;;4892226;29;20053;-85
2022/02/14 10:19:39;;;;;;;7.85;0.80;;;;;;;;;;4894491;29;20498;-81
2022/02/14 10:22:07;;;;;;;3.53;0.40;;;;;;;;;;4891244;29;20077;-83
2022/02/14 10:24:42;;;;;;;6.00;1.27;;;;;;;;;;4892601;29;20044;-83
2022/02/14 10:27:11;;;;;;;5.80;0.90;;;;;;;;;;4890979;29;20517;-81
2022/02/14 10:29:39;;;;;;;2.28;0.50;;;;;;;;;;4892425;29;20048;-82
2022/02/14 10:32:14;;;;;;;3.50;0.65;;;;;;;;;;4875955;29;20081;-82
2022/02/14 10:34:43;;;;;;;4.03;0.85;;;;;;;;;;4893381;29;20048;-81
2022/02/14 10:37:15;;;;;;;10.80;0.63;;;;;;;;;;4891907;29;20128;-80
2022/02/14 10:39:43;;;;;;;5.22;0.60;;;;;;;;;;4891051;29;20041;-81
2022/02/14 10:42:19;;;;;;;7.72;0.75;;;;;;;;;;4891089;29;20119;-81
2022/02/14 10:45:08;;;;;;;5.75;0.60;;;;;;;;;;4891101;29;20528;-80
2022/02/14 10:47:36;;;;;;;5.63;0.93;;;;;;;;;;4891219;29;20048;-81
2022/02/14 10:50:15;;;;;;;6.70;0.98;;;;;;;;;;4891528;29;20060;-82
2022/02/14 10:52:55;;;;;;;3.58;0.70;;;;;;;;;;4890709;29;20084;-79
2022/02/14 10:55:21;;;;;;;4.22;0.80;;;;;;;;;;4892559;29;20545;-80
2022/02/14 10:57:49;;;;;;;6.57;0.75;;;;;;;;;;4891067;29;20048;-80
2022/02/14 11:00:22;;;;;;;6.85;0.63;;;;;;;;;;4888729;29;20116;-85
2022/02/14 11:02:51;;;;;;;6.10;1.17;;;;;;;;;;4883522;29;20068;-84
2022/02/14 11:05:20;;;;;;;4.30;0.63;;;;;;;;;;4890809;29;20105;-83
2022/02/14 11:07:47;;;;;;;6.32;1.15;;;;;;;;;;4895290;29;20103;-84
2022/02/14 11:10:16;;;;;;;8.07;0.90;;;;;;;;;;4913547;29;20115;-83
2022/02/14 11:12:49;;;;;;;5.18;0.93;;;;;;;;;;4912659;29;20159;-83
2022/02/14 11:15:16;;;;;;;6.32;0.70;;;;;;;;;;4907821;29;20103;-81
2022/02/14 11:17:48;;;;;;;3.80;0.50;;;;;;;;;;4913150;29;20052;-83
2022/02/14 11:20:16;;;;;;;5.35;0.90;;;;;;;;;;4912500;29;20052;-83
2022/02/14 11:22:49;;;;;;;3.45;0.73;;;;;;;;;;4898284;29;20115;-83
2022/02/14 11:25:32;;;;;;;6.28;0.70;;;;;;;;;;4912604;29;20698;-83
2022/02/14 11:28:29;;;;;;;3.65;1.05;;;;;;;;;;4913989;29;20576;-92
2022/02/14 11:31:17;;;;;;;6.13;1.02;;;;;;;;;;4912049;29;20047;-84
2022/02/14 11:33:50;;;;;;;6.82;0.82;;;;;;;;;;4899268;29;20164;-84
2022/02/14 11:36:17;;;;;;;11.63;1.95;;;;;;;;;;4912635;29;20528;-84
2022/02/14 11:39:08;;;;;;;5.72;0.73;;;;;;;;;;4913488;29;20060;-86
2022/02/14 11:41:40;;;;;;;11.32;1.67;;;;;;;;;;4912937;29;20044;-85
2022/02/14 11:44:22;;;;;;;8.77;0.90;;;;;;;;;;4897928;29;20052;-83
2022/02/14 11:46:55;;;;;;;9.30;1.55;;;;;;;;;;4913460;29;20048;-83
2022/02/14 11:49:37;;;;;;;9.45;2.03;;;;;;;;;;4914183;29;20103;-85
2022/02/14 11:52:34;;;;;;;8.38;1.10;;;;;;;;;;4912405;29;20044;-84
2022/02/14 11:55:06;;;;;;;10.27;1.23;;;;;;;;;;4912746;29;20051;-84
2022/02/14 11:57:43;;;;;;;9.60;2.05;;;;;;;;;;4909040;29;20056;-85
2022/02/14 12:00:10;;;;;;;15.02;1.50;;;;;;;;;;4912696;29;20103;-84
2022/02/14 12:02:36;;;;;;;14.57;1.48;;;;;;;;;;4911798;29;20044;-84
2022/02/14 12:05:04;;;;;;;8.32;1.40;;;;;;;;;;4907538;29;20845;-85
2022/02/14 12:07:36;;;;;;;13.10;1.50;;;;;;;;;;4891304;29;20128;-86
2022/02/14 12:10:19;;;;;;;14.30;2.22;;;;;;;;;;4894774;29;20089;-84
2022/02/14 12:12:46;;;;;;;15.15;1.52;;;;;;;;;;4892963;29;20069;-83
2022/02/14 12:21:05;;;;;;;11.60;1.92;;;;;;;;;;4895621;29;20060;-84
2022/02/14 12:23:59;;;;;;;12.48;1.33;;;;;;;;;;4894535;29;20132;-85
2022/02/14 12:26:30;;;;;;;13.25;1.50;;;;;;;;;;4894389;29;20056;-85
2022/02/14 12:32:01;;;;;;;14.23;1.83;;;;;;;;;;4893475;29;20044;-86
2022/02/14 12:34:30;;;;;;;4.87;0.73;;;;;;;;;;4896575;29;20048;-86
2022/02/14 12:37:03;;;;;;;4.57;0.57;;;;;;;;;;4894066;29;20344;-86
2022/02/14 12:39:41;;;;;;;5.60;0.98;;;;;;;;;;4894380;29;20044;-86
2022/02/14 12:42:12;;;;;;;7.90;0.90;;;;;;;;;;4893559;29;20048;-86
2022/02/14 12:44:41;;;;;;;4.80;0.75;;;;;;;;;;4893288;29;20120;-85
2022/02/14 12:47:15;;;;;;;3.08;1.27;;;;;;;;;;4884790;29;20048;-85
2022/02/14 12:50:10;;;;;;;7.65;1.45;;;;;;;;;;4893744;29;20044;-86
2022/02/14 12:52:42;;;;;;;6.32;1.10;;;;;;;;;;4893607;29;20057;-87
2022/02/14 12:55:10;;;;;;;7.35;1.48;;;;;;;;;;4895780;29;20076;-86
2022/02/14 12:57:51;;;;;;;9.48;1.40;;;;;;;;;;4890678;29;20414;-85
2022/02/14 13:00:22;;;;;;;14.88;2.13;;;;;;;;;;4893161;29;20093;-86
2022/02/14 13:02:58;;;;;;;12.73;1.77;;;;;;;;;;4893172;29;20533;-84
2022/02/14 13:05:25;;;;;;;8.77;1.67;;;;;;;;;;4891685;29;20052;-84
2022/02/14 13:07:53;;;;;;;10.52;1.42;;;;;;;;;;4893992;29;20049;-85
2022/02/14 13:10:20;;;;;;;8.52;1.48;;;;;;;;;;4878589;29;20059;-86
2022/02/14 13:13:04;;;;;;;25.30;3.03;;;;;;;;;;4894458;29;20101;-85
2022/02/14 13:15:39;;;;;;;10.20;1.95;;;;;;;;;;4892446;29;20052;-85
2022/02/14 13:18:07;;;;;;;15.77;2.40;;;;;;;;;;4893091;29;20059;-87
2022/02/14 13:20:36;;;;;;;10.63;2.13;;;;;;;;;;4893403;29;20100;-83
2022/02/14 13:23:03;;;;;;;19.98;2.22;;;;;;;;;;4870260;29;20049;-85
2022/02/14 13:25:53;;;;;;;10.70;1.50;;;;;;;;;;4893157;29;20076;-83
2022/02/14 13:28:23;;;;;;;11.13;1.50;;;;;;;;;;4891647;29;20096;-84
2022/02/14 13:30:54;;;;;;;11.25;1.63;;;;;;;;;;4894601;29;20569;-84
2022/02/14 13:33:21;;;;;;;9.75;1.58;;;;;;;;;;4877190;29;20096;-84
2022/02/14 13:35:48;;;;;;;13.00;1.48;;;;;;;;;;4895513;29;20052;-86
2022/02/14 13:38:15;;;;;;;9.85;1.27;;;;;;;;;;4892544;29;20072;-84
2022/02/14 13:40:43;;;;;;;7.07;1.55;;;;;;;;;;4895508;29;20405;-88
2022/02/14 13:43:26;;;;;;;15.23;1.58;;;;;;;;;;4893773;29;20470;-81
2022/02/14 13:45:57;;;;;;;10.07;1.30;;;;;;;;;;4894422;29;20052;-86
2022/02/14 13:48:26;;;;;;;6.43;1.38;;;;;;;;;;4878416;29;20060;-85
2022/02/14 13:50:58;;;;;;;7.00;0.77;;;;;;;;;;4890607;29;20059;-84
2022/02/14 13:53:34;;;;;;;3.90;0.85;;;;;;;;;;4881715;29;20146;-86
2022/02/14 13:56:15;;;;;;;4.55;0.77;;;;;;;;;;4895952;29;20525;-86
2022/02/14 13:58:46;;;;;;;8.15;1.05;;;;;;;;;;4892933;29;20048;-85
2022/02/14 14:01:35;;;;;;;7.60;0.90;;;;;;;;;;4893841;29;20425;-86
2022/02/14 14:04:28;;;;;;;8.48;1.00;;;;;;;;;;4892962;29;20096;-88
2022/02/14 14:07:16;;;;;;;7.28;0.85;;;;;;;;;;4886338;29;20052;-85
2022/02/14 14:09:45;;;;;;;11.50;1.60;;;;;;;;;;4899924;29;20139;-86
2022/02/14 14:12:13;;;;;;;6.50;1.13;;;;;;;;;;4881154;29;20084;-89
2022/02/14 14:14:42;;;;;;;9.00;1.30;;;;;;;;;;4878073;29;20096;-85
2022/02/14 14:17:11;;;;;;;9.32;0.80;;;;;;;;;;4875624;29;20051;-86
2022/02/14 14:19:46;;;;;;;11.43;1.65;;;;;;;;;;4893737;29;20490;-86
2022/02/14 14:22:15;;;;;;;10.73;1.60;;;;;;;;;;4888795;29;20053;-86
2022/02/14 14:24:43;;;;;;;13.73;1.75;;;;;;;;;;4888395;29;20056;-87
2022/02/14 14:27:11;;;;;;;13.95;1.35;;;;;;;;;;4886872;29;20036;-87
2022/02/14 14:29:39;;;;;;;15.70;1.58;;;;;;;;;;4898617;29;20409;-88
2022/02/14 14:32:08;;;;;;;12.65;2.03;;;;;;;;;;4883168;29;20057;-86
2022/02/14 14:34:36;;;;;;;18.48;2.50;;;;;;;;;;4875700;29;20067;-85
2022/02/14 14:37:04;;;;;;;11.88;1.98;;;;;;;;;;4893722;29;20889;-85
2022/02/14 14:39:31;;;;;;;14.07;2.38;;;;;;;;;;4893855;29;20115;-86
2022/02/14 14:41:58;;;;;;;15.52;2.50;;;;;;;;;;4869603;29;20052;-84
2022/02/14 14:44:26;;;;;;;16.38;2.15;;;;;;;;;;4886973;29;20052;-83
2022/02/14 14:46:54;;;;;;;12.43;1.67;;;;;;;;;;4893187;29;20056;-86
2022/02/14 14:49:23;;;;;;;15.47;1.70;;;;;;;;;;4890034;29;20045;-85
2022/02/14 14:51:50;;;;;;;21.60;2.55;;;;;;;;;;4874519;29;20053;-85
2022/02/14 14:54:17;;;;;;;16.48;2.25;;;;;;;;;;4870718;29;20053;-83
2022/02/14 14:56:44;;;;;;;12.68;1.95;;;;;;;;;;4880791;29;20044;-83